createdAt,value
2022-12-19T00:01:34.782Z,-2.60
2022-12-19T00:04:06.155Z,-2.60
2022-12-19T00:06:36.775Z,-2.70
2022-12-19T00:09:03.854Z,-2.80
2022-12-19T00:11:30.613Z,-2.70
2022-12-19T00:13:58.031Z,-2.60
2022-12-19T00:16:27.514Z,-2.60
2022-12-19T00:18:55.782Z,-2.60
2022-12-19T00:21:27.495Z,-2.60
2022-12-19T00:23:54.284Z,-2.50
2022-12-19T00:26:28.857Z,-2.50
2022-12-19T00:29:01.184Z,-2.40
2022-12-19T00:31:30.052Z,-2.60
2022-12-19T00:33:57.504Z,-2.70
2022-12-19T00:36:26.771Z,-2.60
2022-12-19T00:38:56.011Z,-2.40
2022-12-19T00:41:25.930Z,-2.50
2022-12-19T00:44:00.602Z,-2.40
2022-12-19T00:46:28.687Z,-2.40
2022-12-19T00:48:55.668Z,-2.40
2022-12-19T00:51:25.830Z,-2.40
2022-12-19T00:53:54.857Z,-2.60
2022-12-19T00:56:24.359Z,-2.60
2022-12-19T00:58:52.224Z,-2.60
2022-12-19T01:01:20.608Z,-2.60
2022-12-19T01:04:11.290Z,-2.60
2022-12-19T01:06:34.807Z,-2.60
2022-12-19T01:09:01.701Z,-2.50
2022-12-19T01:11:47.033Z,-2.40
2022-12-19T01:14:20.801Z,-2.50
2022-12-19T01:16:49.838Z,-2.50
2022-12-19T01:19:16.509Z,-2.50
2022-12-19T01:21:43.225Z,-2.60
2022-12-19T01:24:10.936Z,-2.50
2022-12-19T01:26:37.620Z,-2.50
2022-12-19T01:29:05.212Z,-2.40
2022-12-19T01:31:33.138Z,-2.30
2022-12-19T01:34:00.737Z,-2.30
2022-12-19T01:36:28.296Z,-2.30
2022-12-19T01:38:58.279Z,-2.40
2022-12-19T01:41:25.337Z,-2.50
2022-12-19T01:43:59.932Z,-2.40
2022-12-19T01:46:39.935Z,-2.50
2022-12-19T01:49:14.425Z,-2.50
2022-12-19T01:51:45.489Z,-2.40
2022-12-19T01:56:48.350Z,-2.30
2022-12-19T01:59:22.766Z,-2.30
2022-12-19T02:01:55.141Z,-2.50
2022-12-19T02:04:23.503Z,-2.60
2022-12-19T02:06:51.812Z,-2.60
2022-12-19T02:09:18.946Z,-2.50
2022-12-19T02:11:48.669Z,-2.50
2022-12-19T02:14:15.509Z,-2.40
2022-12-19T02:16:54.666Z,-2.40
2022-12-19T02:20:04.917Z,-2.40
2022-12-19T02:23:18.456Z,-2.40
2022-12-19T02:26:13.123Z,-2.20
2022-12-19T02:29:13.526Z,-2.20
2022-12-19T02:31:48.359Z,-2.10
2022-12-19T02:34:53.454Z,-2.10
2022-12-19T02:37:33.736Z,-2.10
2022-12-19T02:40:09.275Z,-2.00
2022-12-19T02:42:39.764Z,-1.90
2022-12-19T02:45:09.819Z,-1.70
2022-12-19T02:47:37.573Z,-1.70
2022-12-19T02:50:05.396Z,-1.70
2022-12-19T02:52:31.958Z,-1.70
2022-12-19T02:55:12.371Z,-1.70
2022-12-19T02:58:12.444Z,-1.70
2022-12-19T03:00:54.561Z,-1.80
2022-12-19T03:03:36.109Z,-1.80
2022-12-19T03:06:22.632Z,-1.70
2022-12-19T03:09:11.272Z,-1.80
2022-12-19T03:11:40.819Z,-1.50
2022-12-19T03:14:12.504Z,-1.50
2022-12-19T03:16:39.253Z,-1.50
2022-12-19T03:19:10.472Z,-1.50
2022-12-19T03:21:55.137Z,-1.40
2022-12-19T03:24:22.070Z,-1.50
2022-12-19T03:27:03.213Z,-1.40
2022-12-19T03:29:34.066Z,-1.50
2022-12-19T03:32:04.303Z,-1.40
2022-12-19T03:34:40.287Z,-1.30
2022-12-19T03:37:14.721Z,-1.20
2022-12-19T03:39:43.026Z,-1.30
2022-12-19T03:42:30.251Z,-1.30
2022-12-19T03:45:00.357Z,-1.30
2022-12-19T03:47:33.622Z,-1.40
2022-12-19T03:50:00.437Z,-1.30
2022-12-19T03:52:34.176Z,-1.30
2022-12-19T03:55:19.362Z,-1.20
2022-12-19T03:58:27.958Z,-1.20
2022-12-19T04:00:55.514Z,-1.20
2022-12-19T04:03:23.931Z,-1.10
2022-12-19T04:05:51.622Z,-1.10
2022-12-19T04:08:18.791Z,-1.10
2022-12-19T04:10:52.315Z,-1.10
2022-12-19T04:13:27.905Z,-1.10
2022-12-19T04:16:20.843Z,-1.10
2022-12-19T04:18:55.707Z,-1.10
2022-12-19T04:21:31.736Z,-1.10
2022-12-19T04:24:05.973Z,-1.10
2022-12-19T04:26:36.453Z,-1.10
2022-12-19T04:29:06.189Z,-1.30
2022-12-19T04:31:33.055Z,-1.20
2022-12-19T04:33:59.768Z,-1.20
2022-12-19T04:36:26.710Z,-1.10
2022-12-19T04:38:53.556Z,-1.00
2022-12-19T04:41:20.361Z,-0.90
2022-12-19T04:43:47.035Z,-0.80
2022-12-19T04:46:13.797Z,-0.90
2022-12-19T04:48:40.473Z,-0.80
2022-12-19T04:51:07.194Z,-0.80
2022-12-19T04:53:34.167Z,-0.80
2022-12-19T04:56:05.422Z,-0.80
2022-12-19T04:58:32.300Z,-0.80
2022-12-19T05:01:03.476Z,-0.70
2022-12-19T05:03:30.376Z,-0.80
2022-12-19T05:06:08.331Z,-0.80
2022-12-19T05:08:36.731Z,-0.70
2022-12-19T05:11:05.672Z,-0.70
2022-12-19T05:13:32.910Z,-0.70
2022-12-19T05:16:01.452Z,-0.70
2022-12-19T05:18:28.804Z,-0.60
2022-12-19T05:20:55.560Z,-0.60
2022-12-19T05:23:22.641Z,-0.70
2022-12-19T05:25:49.781Z,-0.70
2022-12-19T05:28:17.092Z,-0.60
2022-12-19T05:30:49.176Z,-0.70
2022-12-19T05:33:18.939Z,-0.60
2022-12-19T05:35:45.569Z,-0.70
2022-12-19T05:38:12.191Z,-0.70
2022-12-19T05:40:38.890Z,-0.70
2022-12-19T05:43:05.537Z,-0.70
2022-12-19T05:45:32.240Z,-0.60
2022-12-19T05:48:01.483Z,-0.60
2022-12-19T05:50:28.568Z,-0.70
2022-12-19T05:52:55.564Z,-0.60
2022-12-19T05:55:22.403Z,-0.40
2022-12-19T05:57:49.160Z,-0.30
2022-12-19T06:00:16.471Z,-0.20
2022-12-19T06:02:45.998Z,-0.10
2022-12-19T06:05:12.765Z,-0.20
2022-12-19T06:07:39.455Z,-0.20
2022-12-19T06:10:06.866Z,-0.10
2022-12-19T06:12:33.511Z,0.10
2022-12-19T06:15:00.183Z,0.40
2022-12-19T06:17:26.833Z,0.10
2022-12-19T06:19:53.496Z,0.10
2022-12-19T06:22:20.135Z,0.10
2022-12-19T06:24:46.735Z,0.00
2022-12-19T06:27:13.455Z,-0.10
2022-12-19T06:29:40.250Z,-0.10
2022-12-19T06:32:06.999Z,0.00
2022-12-19T06:37:22.060Z,0.10
2022-12-19T06:39:50.841Z,0.10
2022-12-19T06:42:23.377Z,0.10
2022-12-19T06:44:51.864Z,0.10
2022-12-19T06:47:18.973Z,0.10
2022-12-19T06:49:51.604Z,0.10
2022-12-19T06:52:18.485Z,0.10
2022-12-19T06:54:45.141Z,0.10
2022-12-19T06:57:11.903Z,0.10
2022-12-19T06:59:38.555Z,0.10
2022-12-19T07:02:29.908Z,0.20
2022-12-19T07:05:03.804Z,0.20
2022-12-19T07:07:30.808Z,0.20
2022-12-19T07:09:57.454Z,0.20
2022-12-19T07:12:24.192Z,0.30
2022-12-19T07:14:53.587Z,0.30
2022-12-19T07:17:23.516Z,0.30
2022-12-19T07:19:54.330Z,0.40
2022-12-19T07:22:21.633Z,0.50
2022-12-19T07:24:48.595Z,0.40
2022-12-19T07:27:15.391Z,0.30
2022-12-19T07:29:42.122Z,0.40
2022-12-19T07:32:08.854Z,0.40
2022-12-19T07:34:35.534Z,0.30
2022-12-19T07:37:02.171Z,0.40
2022-12-19T07:39:28.880Z,0.50
2022-12-19T07:41:55.548Z,0.60
2022-12-19T07:44:22.314Z,0.60
2022-12-19T07:46:49.007Z,0.60
2022-12-19T07:49:21.010Z,0.60
2022-12-19T07:51:49.767Z,0.60
2022-12-19T07:54:16.464Z,0.50
2022-12-19T07:56:43.155Z,0.60
2022-12-19T07:59:10.151Z,0.70
2022-12-19T08:01:36.851Z,0.70
2022-12-19T08:04:03.783Z,0.70
2022-12-19T08:06:30.573Z,0.60
2022-12-19T08:08:57.271Z,0.70
2022-12-19T08:11:27.432Z,0.60
2022-12-19T08:13:54.464Z,0.60
2022-12-19T08:16:21.896Z,0.60
2022-12-19T08:18:48.612Z,0.70
2022-12-19T08:21:15.282Z,0.70
2022-12-19T08:23:42.099Z,0.80
2022-12-19T08:26:15.385Z,0.90
2022-12-19T08:28:43.277Z,0.80
2022-12-19T08:31:15.992Z,0.80
2022-12-19T08:33:43.466Z,1.00
2022-12-19T08:36:12.965Z,1.00
2022-12-19T08:38:40.110Z,0.90
2022-12-19T08:41:07.731Z,1.00
2022-12-19T08:43:34.923Z,1.00
2022-12-19T08:46:02.345Z,1.00
2022-12-19T08:48:29.264Z,1.00
2022-12-19T08:50:58.038Z,1.00
2022-12-19T08:53:26.816Z,0.90
2022-12-19T08:56:06.890Z,0.90
2022-12-19T08:58:33.957Z,0.90
2022-12-19T09:01:05.548Z,0.90
2022-12-19T09:03:54.572Z,0.90
2022-12-19T09:06:19.879Z,1.00
2022-12-19T09:08:46.880Z,1.00
2022-12-19T09:11:16.353Z,1.00
2022-12-19T09:13:44.697Z,1.10
2022-12-19T09:16:15.942Z,1.10
2022-12-19T09:18:48.413Z,1.10
2022-12-19T09:21:16.907Z,1.10
2022-12-19T09:23:47.621Z,1.00
2022-12-19T09:26:15.714Z,1.10
2022-12-19T09:28:42.942Z,1.10
2022-12-19T09:31:15.716Z,1.20
2022-12-19T09:33:44.001Z,1.20
2022-12-19T09:36:20.004Z,1.10
2022-12-19T09:38:47.456Z,1.30
2022-12-19T09:41:14.099Z,1.30
2022-12-19T09:44:07.731Z,1.40
2022-12-19T09:47:05.270Z,1.50
2022-12-19T09:49:41.927Z,1.70
2022-12-19T09:52:43.451Z,1.70
2022-12-19T09:55:33.814Z,1.80
2022-12-19T09:58:22.423Z,1.80
2022-12-19T10:01:00.027Z,1.80
2022-12-19T10:03:40.330Z,1.90
2022-12-19T10:07:11.331Z,1.80
2022-12-19T10:11:00.956Z,1.80
2022-12-19T10:12:44.610Z,1.80
2022-12-19T10:15:23.880Z,2.00
2022-12-19T10:18:20.010Z,2.00
2022-12-19T10:20:59.089Z,2.10
2022-12-19T10:23:49.064Z,2.20
2022-12-19T10:26:30.239Z,2.00
2022-12-19T10:29:34.752Z,2.10
2022-12-19T10:32:11.246Z,2.10
2022-12-19T10:34:41.675Z,2.20
2022-12-19T10:37:34.332Z,2.20
2022-12-19T10:40:30.976Z,2.30
2022-12-19T10:43:19.310Z,2.20
2022-12-19T10:46:07.706Z,2.20
2022-12-19T10:48:34.381Z,2.20
2022-12-19T10:51:05.032Z,2.30
2022-12-19T10:53:33.753Z,2.40
2022-12-19T10:56:03.003Z,2.40
2022-12-19T10:58:37.682Z,2.40
2022-12-19T11:01:42.761Z,2.50
2022-12-19T11:04:15.510Z,2.40
2022-12-19T11:06:46.512Z,2.40
2022-12-19T11:09:23.698Z,2.40
2022-12-19T11:16:07.317Z,2.30
2022-12-19T11:21:10.587Z,2.30
2022-12-19T11:29:16.516Z,2.40
2022-12-19T11:29:19.014Z,2.40
2022-12-19T11:29:42.535Z,2.50
2022-12-19T11:30:35.710Z,2.60
2022-12-19T11:32:42.289Z,2.80
2022-12-19T11:35:36.740Z,2.80
2022-12-19T11:38:07.922Z,2.90
2022-12-19T11:40:49.563Z,3.10
2022-12-19T11:43:44.513Z,3.10
2022-12-19T11:46:42.297Z,3.20
2022-12-19T11:49:28.838Z,3.20
2022-12-19T11:53:02.497Z,3.20
2022-12-19T11:55:15.765Z,3.10
2022-12-19T11:57:43.031Z,3.10
2022-12-19T12:00:16.277Z,3.20
2022-12-19T12:02:52.187Z,3.20
2022-12-19T12:05:30.766Z,3.20
2022-12-19T12:10:27.884Z,3.30
2022-12-19T12:18:16.522Z,3.40
2022-12-19T12:24:25.043Z,3.50
2022-12-19T12:31:09.191Z,3.60
2022-12-19T12:31:27.720Z,3.50
2022-12-19T12:31:29.215Z,3.40
2022-12-19T12:31:42.780Z,3.70
2022-12-19T12:31:47.319Z,3.40
2022-12-19T12:35:54.216Z,3.60
2022-12-19T12:37:52.476Z,3.40
2022-12-19T12:38:44.787Z,3.50
2022-12-19T12:41:45.884Z,3.70
2022-12-19T12:44:13.471Z,3.60
2022-12-19T12:46:59.308Z,3.60
2022-12-19T12:49:37.508Z,3.50
2022-12-19T12:52:07.820Z,3.60
2022-12-19T12:54:39.161Z,3.50
2022-12-19T12:57:06.020Z,3.60
2022-12-19T12:59:32.949Z,3.50
2022-12-19T13:02:13.418Z,3.60
2022-12-19T13:04:58.606Z,3.70
2022-12-19T13:07:30.642Z,3.70
2022-12-19T13:10:30.555Z,3.70
2022-12-19T13:13:19.737Z,3.70
2022-12-19T13:15:49.428Z,3.70
2022-12-19T13:18:37.917Z,3.70
2022-12-19T13:21:08.527Z,3.60
2022-12-19T13:23:38.351Z,3.70
2022-12-19T13:26:19.951Z,3.80
2022-12-19T13:28:46.923Z,3.90
2022-12-19T13:31:18.588Z,4.00
2022-12-19T13:34:17.186Z,4.00
2022-12-19T13:39:47.982Z,4.10
2022-12-19T13:40:10.843Z,4.10
2022-12-19T13:43:10.360Z,4.30
2022-12-19T13:45:41.523Z,4.30
2022-12-19T13:48:16.512Z,4.30
2022-12-19T13:50:47.682Z,4.20
2022-12-19T13:53:22.381Z,4.20
2022-12-19T13:55:50.056Z,4.20
2022-12-19T13:58:28.816Z,4.20
2022-12-19T14:01:01.127Z,4.20
2022-12-19T14:03:39.057Z,4.20
2022-12-19T14:06:31.060Z,4.10
2022-12-19T14:11:25.748Z,4.20
2022-12-19T14:12:24.609Z,4.20
2022-12-19T14:15:13.075Z,4.30
2022-12-19T14:17:40.758Z,4.10
2022-12-19T14:22:08.803Z,4.10
2022-12-19T14:23:13.024Z,4.10
2022-12-19T14:28:17.604Z,4.10
2022-12-19T14:28:41.729Z,4.10
2022-12-19T14:31:13.055Z,3.80
2022-12-19T14:34:35.146Z,3.90
2022-12-19T14:36:46.755Z,4.00
2022-12-19T14:39:18.674Z,3.70
2022-12-19T14:42:19.150Z,3.80
2022-12-19T14:52:26.128Z,3.80
2022-12-19T14:53:51.951Z,3.80
2022-12-19T14:54:07.606Z,3.80
2022-12-19T14:54:28.278Z,3.80
2022-12-19T14:59:01.501Z,3.70
2022-12-19T15:01:32.193Z,3.80
2022-12-19T15:04:48.458Z,3.80
2022-12-19T15:07:12.329Z,3.90
2022-12-19T15:11:07.603Z,3.80
2022-12-19T15:14:54.587Z,3.80
2022-12-19T15:16:23.077Z,3.80
2022-12-19T15:18:50.918Z,3.80
2022-12-19T15:21:17.634Z,3.80
2022-12-19T15:23:45.220Z,3.80
2022-12-19T15:26:15.149Z,3.70
2022-12-19T15:28:43.339Z,3.60
2022-12-19T15:31:40.576Z,3.50
2022-12-19T15:34:41.906Z,3.50
2022-12-19T15:37:17.015Z,3.60
2022-12-19T15:39:45.084Z,3.40
2022-12-19T15:42:23.511Z,3.40
2022-12-19T15:44:52.346Z,3.40
2022-12-19T15:47:24.419Z,3.50
2022-12-19T15:49:51.171Z,3.50
2022-12-19T15:52:19.682Z,3.50
2022-12-19T15:54:48.608Z,3.40
2022-12-19T15:57:57.652Z,3.40
2022-12-19T16:00:35.006Z,3.40
2022-12-19T16:05:49.267Z,3.40
2022-12-19T16:08:19.473Z,3.40
2022-12-19T16:11:17.300Z,3.50
2022-12-19T16:13:48.882Z,3.50
2022-12-19T16:16:16.226Z,3.50
2022-12-19T16:18:44.561Z,3.50
2022-12-19T16:21:34.052Z,3.50
2022-12-19T16:24:01.241Z,3.50
2022-12-19T16:26:37.636Z,3.50
2022-12-19T16:29:04.956Z,3.40
2022-12-19T16:31:31.766Z,3.40
2022-12-19T16:33:58.479Z,3.30
2022-12-19T16:36:25.185Z,3.40
2022-12-19T16:38:51.859Z,3.40
2022-12-19T16:41:24.770Z,3.30
2022-12-19T16:43:52.114Z,3.30
2022-12-19T16:46:22.023Z,3.30
2022-12-19T16:48:49.818Z,3.30
2022-12-19T16:51:22.220Z,3.30
2022-12-19T16:53:50.646Z,3.30
2022-12-19T16:56:24.612Z,3.30
2022-12-19T16:58:52.707Z,3.20
2022-12-19T17:01:20.283Z,3.10
2022-12-19T17:03:47.265Z,3.20
2022-12-19T17:06:16.746Z,3.10
2022-12-19T17:08:44.715Z,3.00
2022-12-19T17:11:16.035Z,2.80
2022-12-19T17:13:45.625Z,2.70
2022-12-19T17:16:13.145Z,2.70
2022-12-19T17:18:41.825Z,2.80
2022-12-19T17:21:15.872Z,2.70
2022-12-19T17:23:42.985Z,2.90
2022-12-19T17:26:14.128Z,2.90
2022-12-19T17:28:48.007Z,2.90
2022-12-19T17:31:25.869Z,2.90
2022-12-19T17:33:55.470Z,2.90
2022-12-19T17:36:29.844Z,2.90
2022-12-19T17:39:00.167Z,2.90
2022-12-19T17:41:27.800Z,2.90
2022-12-19T17:43:54.584Z,2.90
2022-12-19T17:46:23.445Z,2.90
2022-12-19T17:48:52.571Z,2.90
2022-12-19T17:51:21.481Z,2.90
2022-12-19T17:53:49.284Z,3.00
2022-12-19T17:56:18.274Z,3.00
2022-12-19T17:58:45.166Z,3.00
2022-12-19T18:01:20.134Z,2.90
2022-12-19T18:03:47.843Z,2.90
2022-12-19T18:06:15.895Z,2.90
2022-12-19T18:08:42.774Z,2.90
2022-12-19T18:11:27.475Z,3.00
2022-12-19T18:13:54.631Z,3.20
2022-12-19T18:16:27.224Z,3.30
2022-12-19T18:18:54.397Z,3.40
2022-12-19T18:21:25.808Z,3.40
2022-12-19T18:23:52.782Z,3.40
2022-12-19T18:26:19.634Z,3.60
2022-12-19T18:28:46.371Z,3.70
2022-12-19T18:31:25.745Z,3.80
2022-12-19T18:33:54.447Z,3.90
2022-12-19T18:36:24.008Z,4.00
2022-12-19T18:38:51.789Z,4.00
2022-12-19T18:41:19.803Z,4.10
2022-12-19T18:43:47.069Z,4.10
2022-12-19T18:46:16.163Z,4.10
2022-12-19T18:48:44.888Z,3.90
2022-12-19T18:51:19.204Z,3.90
2022-12-19T18:53:47.442Z,3.90
2022-12-19T18:56:14.899Z,3.90
2022-12-19T18:58:42.220Z,4.00
2022-12-19T19:01:18.695Z,3.90
2022-12-19T19:03:53.513Z,3.80
2022-12-19T19:06:23.462Z,3.70
2022-12-19T19:08:51.522Z,3.80
2022-12-19T19:11:20.307Z,3.80
2022-12-19T19:13:47.100Z,3.80
2022-12-19T19:16:18.286Z,3.50
2022-12-19T19:18:46.596Z,3.50
2022-12-19T19:21:14.975Z,3.50
2022-12-19T19:23:51.022Z,3.60
2022-12-19T19:26:17.848Z,3.60
2022-12-19T19:28:50.293Z,3.70
2022-12-19T19:31:21.281Z,3.70
2022-12-19T19:33:52.669Z,3.70
2022-12-19T19:36:23.089Z,3.70
2022-12-19T19:38:54.766Z,3.70
2022-12-19T19:41:22.833Z,3.70
2022-12-19T19:43:49.794Z,3.60
2022-12-19T19:46:16.760Z,3.60
2022-12-19T19:48:43.619Z,3.50
2022-12-19T19:51:11.990Z,3.50
2022-12-19T19:53:38.825Z,3.40
2022-12-19T19:56:05.913Z,3.50
2022-12-19T19:58:32.719Z,3.40
2022-12-19T20:00:59.649Z,3.50
2022-12-19T20:03:26.965Z,3.40
2022-12-19T20:06:01.026Z,3.50
2022-12-19T20:08:30.972Z,3.40
2022-12-19T20:11:00.661Z,3.30
2022-12-19T20:13:30.307Z,3.30
2022-12-19T20:16:06.567Z,3.20
2022-12-19T20:18:34.117Z,3.20
2022-12-19T20:21:01.178Z,3.20
2022-12-19T20:23:28.199Z,3.20
2022-12-19T20:25:59.793Z,3.30
2022-12-19T20:28:26.460Z,3.80
2022-12-19T20:30:53.255Z,4.20
2022-12-19T20:33:20.006Z,3.90
2022-12-19T20:35:46.834Z,3.60
2022-12-19T20:38:13.570Z,3.30
2022-12-19T20:40:40.324Z,3.30
2022-12-19T20:43:07.128Z,3.30
2022-12-19T20:45:33.852Z,3.30
2022-12-19T20:48:00.596Z,3.40
2022-12-19T20:50:27.389Z,3.40
2022-12-19T20:52:54.280Z,3.40
2022-12-19T20:55:20.976Z,3.30
2022-12-19T20:57:47.855Z,3.30
2022-12-19T21:00:15.468Z,3.40
2022-12-19T21:03:24.958Z,3.30
2022-12-19T21:05:28.911Z,3.30
2022-12-19T21:07:55.671Z,3.30
2022-12-19T21:10:22.435Z,3.30
2022-12-19T21:12:49.135Z,3.20
2022-12-19T21:15:16.073Z,3.20
2022-12-19T21:17:42.826Z,3.20
2022-12-19T21:20:10.250Z,3.10
2022-12-19T21:22:36.885Z,3.10
2022-12-19T21:25:04.434Z,3.00
2022-12-19T21:27:31.169Z,3.10
2022-12-19T21:29:57.973Z,3.10
2022-12-19T21:32:24.703Z,3.00
2022-12-19T21:34:53.612Z,3.00
2022-12-19T21:37:20.291Z,2.80
2022-12-19T21:39:46.986Z,2.90
2022-12-19T21:42:13.680Z,2.90
2022-12-19T21:44:44.213Z,2.90
2022-12-19T21:47:10.993Z,3.00
2022-12-19T21:49:37.841Z,3.00
2022-12-19T21:52:04.902Z,3.10
2022-12-19T21:54:31.577Z,2.80
2022-12-19T21:56:58.693Z,2.90
2022-12-19T21:59:25.466Z,3.10
2022-12-19T22:01:52.422Z,3.00
2022-12-19T22:04:21.982Z,3.10
2022-12-19T22:06:50.101Z,3.20
2022-12-19T22:09:19.443Z,3.30
2022-12-19T22:11:46.443Z,3.30
2022-12-19T22:14:15.444Z,3.30
2022-12-19T22:16:42.381Z,3.30
2022-12-19T22:19:16.996Z,3.30
2022-12-19T22:21:45.581Z,3.20
2022-12-19T22:24:14.162Z,3.10
2022-12-19T22:26:41.015Z,3.10
2022-12-19T22:29:10.114Z,3.10
2022-12-19T22:31:38.273Z,3.00
2022-12-19T22:34:08.017Z,3.10
2022-12-19T22:36:36.643Z,3.10
2022-12-19T22:39:06.399Z,3.20
2022-12-19T22:41:34.655Z,3.30
2022-12-19T22:44:01.990Z,3.30
2022-12-19T22:46:34.416Z,3.30
2022-12-19T22:49:03.545Z,3.30
2022-12-19T22:51:32.191Z,3.30
2022-12-19T22:53:59.763Z,3.20
2022-12-19T22:56:28.788Z,3.20
2022-12-19T22:58:58.862Z,3.20
2022-12-19T23:01:35.723Z,3.00
2022-12-19T23:04:04.039Z,2.90
2022-12-19T23:06:33.535Z,3.00
2022-12-19T23:09:00.537Z,2.90
2022-12-19T23:11:33.895Z,2.90
2022-12-19T23:14:02.159Z,3.00
2022-12-19T23:16:29.127Z,3.00
2022-12-19T23:18:55.937Z,3.00
2022-12-19T23:21:24.849Z,3.00
2022-12-19T23:23:53.216Z,2.90
2022-12-19T23:26:26.914Z,3.00
2022-12-19T23:29:05.537Z,3.00
2022-12-19T23:31:33.815Z,2.90
2022-12-19T23:34:01.463Z,2.90
2022-12-19T23:37:08.217Z,2.80
2022-12-19T23:39:15.317Z,2.70
2022-12-19T23:41:42.361Z,2.80
2022-12-19T23:44:09.794Z,2.80
2022-12-19T23:46:37.301Z,2.70
2022-12-19T23:49:04.467Z,2.70
2022-12-19T23:51:31.243Z,2.60
2022-12-19T23:53:58.041Z,2.50
2022-12-19T23:56:27.224Z,2.50
2022-12-19T23:58:54.386Z,2.50
